Latest Weather Observations for Tidbinbilla

IDN60801

Issued at 10:12 am EST Monday 16 September 2019 (issued every 10 minutes, with the page automatically refreshed every 10 minutes)

About weather observations | Map of weather stations | Latest weather observations for NSW | Other Formats
Station Details ID: 250069 Name: TIDBINBILLA (PCS) Lat: -35.46 Lon: 148.93 Height: 834.0 m
Data from the previous 72 hours. | See also: Recent months for locations in New South Wales
Date/Time
EST
Temp
°C
App
Temp
°C
Dew
Point
°C
Rel
Hum
%
Delta-T
°C
Wind Press
QNH
hPa
Press
MSL
hPa
Rain since
9am
mm
Dir  Spd
km/h
Gust
km/h
Spd
kts
Gust
kts
16/10:00am 19.6 12.1 -1.3 24 9.4 WSW 28 43 15 23 1016.4 - 0.0
16/09:50am 19.2 11.3 -1.7 24 9.3 SW 30 37 16 20 1016.2 - 0.0
16/09:40am 19.0 10.6 -2.1 24 9.3 WSW 32 43 17 23 1016.4 - 0.0
16/09:30am 18.9 10.4 -1.9 24 9.2 WSW 33 54 18 29 1016.2 - 0.0
16/09:20am 18.7 12.3 -1.8 25 9.0 WSW 22 35 12 19 1016.3 - 0.0
16/09:10am 18.6 10.3 -1.9 25 9.0 SW 32 46 17 25 1016.4 - 0.0
16/09:00am 18.4 11.2 -2.2 24 9.0 WSW 26 41 14 22 1016.1 - 0.0
16/08:50am 18.0 9.6 -2.8 24 8.9 SW 32 39 17 21 1016.6 - 0.0
16/08:40am 17.9 8.7 -4.7 21 9.3 SW 35 37 19 20 1016.6 - 0.0
16/08:30am 18.1 11.2 -6.2 18 9.7 WSW 22 30 12 16 1016.5 - 0.0
16/08:20am 18.0 9.5 -7.1 17 9.9 WSW 30 35 16 19 1016.4 - 0.0
16/08:10am 17.8 9.7 -7.1 17 9.8 SW 28 33 15 18 1016.4 - 0.0
16/08:00am 17.9 10.5 -6.9 18 9.8 WSW 24 33 13 18 1016.4 - 0.0
16/07:50am 17.7 11.0 -7.5 17 9.8 W 20 32 11 17 1016.3 - 0.0
16/07:40am 17.6 11.7 -5.2 20 9.3 W 17 33 9 18 1016.2 - 0.0
16/07:30am 17.3 10.5 -5.1 21 9.1 W 22 30 12 16 1016.4 - 0.0
16/07:20am 17.3 10.8 -5.8 20 9.3 WNW 20 33 11 18 1016.4 - 0.0
16/07:10am 17.1 9.4 -6.8 19 9.4 WSW 26 43 14 23 1016.4 - 0.0
16/07:00am 16.8 10.2 -6.8 19 9.2 W 20 28 11 15 1016.4 - 0.0
16/06:50am 16.8 10.6 -5.2 22 8.9 W 19 39 10 21 1016.4 - 0.0
16/06:40am 16.5 11.3 -5.7 21 8.8 WNW 13 20 7 11 1016.5 - 0.0
16/06:30am 16.0 10.2 -4.7 24 8.4 WNW 17 32 9 17 1016.3 - 0.0
16/06:20am 16.2 10.8 -4.6 23 8.5 W 15 22 8 12 1016.6 - 0.0
16/06:10am 15.7 9.9 -5.0 23 8.3 W 17 33 9 18 1016.6 - 0.0
16/06:00am 15.2 10.6 -4.0 26 7.8 WSW 11 19 6 10 1016.7 - 0.0
16/05:50am 14.9 11.3 -2.0 31 7.2 W 7 11 4 6 1016.6 - 0.0
16/05:40am 15.2 10.8 -2.7 29 7.5 N 11 19 6 10 1016.1 - 0.0
16/05:30am 15.1 10.8 -1.5 32 7.1 NNW 11 15 6 8 1016.5 - 0.0
16/05:20am 15.3 10.2 -1.6 31 7.3 N 15 28 8 15 1016.3 - 0.0
16/05:10am 14.7 11.4 -0.9 34 6.8 N 6 11 3 6 1016.3 - 0.0
16/05:00am 15.3 10.4 -0.7 33 7.0 NNW 15 22 8 12 1016.5 - 0.0
16/04:50am 15.4 10.8 -1.3 32 7.2 WSW 13 22 7 12 1016.7 - 0.0
16/04:40am 15.2 10.9 -1.3 32 7.1 WNW 11 15 6 8 1016.2 - 0.0
16/04:30am 15.5 11.6 -1.3 31 7.3 W 9 19 5 10 1016.5 - 0.0
16/04:20am 15.6 10.9 -1.7 30 7.4 W 13 22 7 12 1016.4 - 0.0
16/04:10am 15.2 11.3 -1.8 31 7.3 N 9 19 5 10 1016.3 - 0.0
16/04:00am 14.8 11.2 -2.4 30 7.2 WNW 7 11 4 6 1016.5 - 0.0
16/03:50am 14.8 10.5 -1.6 32 7.0 N 11 15 6 8 1016.6 - 0.0
16/03:40am 15.2 10.3 -3.3 28 7.7 N 13 17 7 9 1016.7 - 0.0
16/03:30am 15.0 10.7 -1.9 31 7.2 N 11 22 6 12 1016.8 - 0.0
16/03:20am 15.0 9.9 -1.7 31 7.1 NNE 15 22 8 12 1016.8 - 0.0
16/03:10am 14.8 11.4 -0.7 34 6.8 NNW 7 15 4 8 1017.1 - 0.0
16/03:00am 14.1 10.8 0.2 38 6.1 NE 7 15 4 8 1017.0 - 0.0
16/02:50am 14.5 11.4 0.3 38 6.3 N 6 13 3 7 1017.5 - 0.0
16/02:40am 14.7 11.6 0.0 36 6.5 N 6 9 3 5 1017.5 - 0.0
16/02:30am 14.2 11.4 -0.1 37 6.3 S 4 7 2 4 1017.9 - 0.0
16/02:20am 14.6 11.0 0.4 38 6.3 NNE 9 13 5 7 1017.9 - 0.0
16/02:10am 14.8 11.5 0.1 36 6.5 NNE 7 11 4 6 1018.0 - 0.0
16/02:00am 14.9 12.1 -0.3 35 6.7 NNE 4 7 2 4 1018.2 - 0.0
16/01:50am 14.9 11.7 -0.2 35 6.7 N 6 9 3 5 1018.4 - 0.0
16/01:40am 15.2 12.8 -0.4 34 6.9 NE 2 6 1 3 1018.6 - 0.0
16/01:30am 15.5 12.3 -0.7 33 7.1 S 6 15 3 8 1018.9 - 0.0
16/01:20am 15.6 11.8 -0.9 32 7.2 SW 9 15 5 8 1019.0 - 0.0
16/01:10am 15.7 10.0 -1.1 31 7.3 SW 19 28 10 15 1019.1 - 0.0
16/01:00am 15.6 10.2 -1.7 30 7.4 WSW 17 26 9 14 1019.5 - 0.0
16/12:50am 15.3 10.2 -2.2 30 7.4 SW 15 26 8 14 1019.6 - 0.0
16/12:40am 14.7 10.6 -3.4 28 7.4 E 9 13 5 7 1019.9 - 0.0
16/12:30am 15.0 11.3 -3.2 28 7.5 NNW 7 13 4 7 1019.8 - 0.0
16/12:20am 14.8 10.3 -3.1 29 7.4 N 11 13 6 7 1019.7 - 0.0
16/12:10am 14.7 11.1 -3.9 27 7.6 NE 6 7 3 4 1019.9 - 0.0
16/12:00am 14.5 10.8 -2.7 30 7.2 NNE 7 13 4 7 1020.0 - 0.0
 
Date/Time
EST
Temp
°C
App
Temp
°C
Dew
Point
°C
Rel
Hum
%
Delta-T
°C
Wind Press
QNH
hPa
Press
MSL
hPa
Rain since
9am
mm
Dir  Spd
km/h
Gust
km/h
Spd
kts
Gust
kts
15/11:50pm 14.4 10.8 -3.4 29 7.3 NNE 6 15 3 8 1019.8 - 0.0
15/11:40pm 14.1 10.6 -2.5 31 6.9 NNE 6 13 3 7 1020.1 - 0.0
15/11:30pm 14.5 10.5 -2.1 32 7.0 NNE 9 11 5 6 1020.1 - 0.0
15/11:20pm 14.5 10.8 -2.5 31 7.1 N 7 11 4 6 1019.9 - 0.0
15/11:10pm 14.9 10.8 -3.1 28 7.5 N 9 15 5 8 1020.1 - 0.0
15/11:00pm 14.7 9.4 -3.4 28 7.4 NNE 15 19 8 10 1020.1 - 0.0
15/10:50pm 14.9 9.2 -3.4 28 7.5 NNE 17 22 9 12 1020.1 - 0.0
15/10:40pm 14.6 10.1 -3.0 29 7.3 NNE 11 15 6 8 1020.6 - 0.0
15/10:30pm 14.7 10.1 -3.8 27 7.5 NNE 11 13 6 7 1020.5 - 0.0
15/10:20pm 14.3 9.8 -3.5 29 7.3 N 11 15 6 8 1020.8 - 0.0
15/10:10pm 14.5 10.1 -2.6 30 7.1 N 11 13 6 7 1020.9 - 0.0
15/10:00pm 14.6 10.9 -2.5 30 7.2 N 7 13 4 7 1021.2 - 0.0
15/09:50pm 14.8 10.7 -2.8 29 7.3 NNE 9 17 5 9 1021.3 - 0.0
15/09:40pm 14.5 11.3 -3.2 29 7.3 NW 4 9 2 5 1021.3 - 0.0
15/09:30pm 14.3 11.1 -3.2 29 7.2 S 4 11 2 6 1021.5 - 0.0
15/09:20pm 14.0 10.9 -2.4 32 6.8 N 4 6 2 3 1021.8 - 0.0
15/09:10pm 14.2 11.5 -2.7 31 7.0 WSW 2 6 1 3 1021.8 - 0.0
15/09:00pm 14.4 11.3 -2.8 30 7.1 NNW 4 6 2 3 1021.8 - 0.0
15/08:50pm 14.2 10.7 -3.1 30 7.1 NW 6 11 3 6 1021.9 - 0.0
15/08:40pm 14.2 11.1 -3.0 30 7.1 WNW 4 7 2 4 1022.1 - 0.0
15/08:30pm 14.4 10.3 -3.2 29 7.2 W 9 19 5 10 1022.0 - 0.0
15/08:20pm 14.2 11.4 -3.2 30 7.1 SSW 2 4 1 2 1022.2 - 0.0
15/08:10pm 14.1 10.9 -3.5 29 7.2 WNW 4 7 2 4 1022.3 - 0.0
15/08:00pm 13.8 10.2 -3.4 30 7.0 NW 6 9 3 5 1022.4 - 0.0
15/07:50pm 14.2 10.5 -3.3 29 7.2 NW 7 20 4 11 1022.5 - 0.0
15/07:40pm 14.2 10.1 -3.1 30 7.1 NNW 9 15 5 8 1022.2 - 0.0
15/07:30pm 14.5 10.7 -3.6 28 7.4 WNW 7 13 4 7 1022.3 - 0.0
15/07:20pm 14.9 11.1 -3.9 27 7.7 W 7 9 4 5 1022.3 - 0.0
15/07:10pm 15.1 10.9 -4.2 26 7.8 W 9 9 5 5 1022.4 - 0.0
15/07:00pm 15.3 11.0 -4.5 25 8.0 W 9 15 5 8 1022.4 - 0.0
15/06:50pm 15.4 11.1 -4.9 24 8.1 WSW 9 13 5 7 1022.2 - 0.0
15/06:40pm 15.4 10.3 -5.1 24 8.2 WSW 13 20 7 11 1022.3 - 0.0
15/06:30pm 15.5 10.3 -5.7 23 8.4 WSW 13 19 7 10 1022.2 - 0.0
15/06:20pm 15.5 9.9 -6.2 22 8.5 WSW 15 20 8 11 1022.1 - 0.0
15/06:10pm 15.5 9.8 -7.4 20 8.7 WSW 15 19 8 10 1022.1 - 0.0
15/06:00pm 15.5 10.7 -6.5 21 8.5 WSW 11 15 6 8 1022.0 - 0.0
15/05:50pm 15.6 10.8 -5.6 23 8.4 WSW 11 15 6 8 1021.9 - 0.0
15/05:40pm 16.0 11.8 -4.1 25 8.2 W 9 13 5 7 1021.8 - 0.0
15/05:30pm 16.5 12.3 -3.6 25 8.4 WSW 9 11 5 6 1021.7 - 0.0
15/05:20pm 17.1 12.7 -2.6 26 8.4 WSW 11 13 6 7 1021.6 - 0.0
15/05:10pm 17.4 12.2 -3.0 24 8.7 WSW 15 17 8 9 1021.6 - 0.0
15/05:00pm 18.6 13.9 -1.5 25 8.9 WSW 13 19 7 10 1021.5 - 0.0
15/04:50pm 19.2 13.6 -2.5 23 9.5 SW 17 22 9 12 1021.4 - 0.0
15/04:40pm 19.9 14.2 -1.1 24 9.5 WSW 19 24 10 13 1021.4 - 0.0
15/04:30pm 20.8 16.2 -0.8 23 9.9 SW 13 26 7 14 1021.1 - 0.0
15/04:20pm 21.2 18.1 1.1 26 9.6 WSW 7 13 4 7 1021.1 - 0.0
15/04:00pm 21.5 17.6 1.0 25 9.8 WSW 11 19 6 10 1021.0 - 0.0
15/03:50pm 21.4 17.9 1.2 26 9.7 WSW 9 13 5 7 1021.1 - 0.0
15/03:40pm 20.6 16.3 0.8 26 9.3 WSW 13 19 7 10 1021.1 - 0.0
15/03:30pm 20.4 14.7 0.8 27 9.2 SW 20 24 11 13 1021.2 - 0.0
15/03:20pm 20.9 16.9 0.6 26 9.6 SW 11 19 6 10 1021.1 - 0.0
15/03:10pm 20.8 15.8 1.2 27 9.3 SW 17 20 9 11 1021.2 - 0.0
15/03:00pm 20.4 13.9 0.6 26 9.3 SW 24 30 13 16 1021.2 - 0.0
15/02:50pm 20.6 15.0 1.1 27 9.3 SW 20 30 11 16 1021.5 - 0.0
15/02:40pm 20.7 15.2 0.5 26 9.5 WSW 19 22 10 12 1021.7 - 0.0
15/02:30pm 20.8 15.3 0.5 26 9.5 WSW 19 22 10 12 1021.8 - 0.0
15/02:20pm 20.9 15.9 1.4 27 9.3 WSW 17 22 9 12 1022.0 - 0.0
15/02:10pm 20.5 15.0 0.7 26 9.3 WSW 19 22 10 12 1022.1 - 0.0
15/02:00pm 20.7 16.0 0.6 26 9.5 WSW 15 17 8 9 1022.3 - 0.0
15/01:50pm 20.2 14.2 0.9 27 9.1 WSW 22 30 12 16 1022.4 - 0.0
15/01:40pm 21.6 16.1 0.7 25 9.9 WSW 19 26 10 14 1022.5 - 0.0
15/01:30pm 21.6 15.9 0.6 24 9.9 WSW 20 28 11 15 1022.5 - 0.0
15/01:20pm 22.0 17.3 1.1 25 10.0 WSW 15 22 8 12 1022.6 - 0.0
15/01:10pm 21.8 17.1 1.1 25 9.9 W 15 22 8 12 1022.7 - 0.0
15/01:00pm 21.2 16.9 1.2 26 9.6 WNW 13 20 7 11 1022.7 - 0.0
15/12:50pm 20.3 17.0 2.4 30 8.7 N 9 15 5 8 1022.9 - 0.0
15/12:40pm 19.9 16.3 0.4 27 9.1 N 9 15 5 8 1023.0 - 0.0
15/12:30pm 19.3 15.7 0.7 28 8.7 N 9 13 5 7 1023.3 - 0.0
15/12:20pm 18.4 15.2 2.8 35 7.5 N 9 15 5 8 1023.4 - 0.0
15/12:10pm 17.0 13.7 0.1 32 7.6 NNE 7 11 4 6 1023.4 - 0.0
15/12:00pm 16.6 13.4 -0.2 32 7.5 N 6 7 3 4 1023.5 - 0.0
15/11:50am 16.2 13.8 -0.3 32 7.3 N 2 6 1 3 1023.7 - 0.0
15/11:40am 15.6 12.8 -0.7 33 7.2 NNW 4 6 2 3 1023.8 - 0.0
15/11:30am 15.3 12.1 -0.5 34 7.0 NNW 6 9 3 5 1023.9 - 0.0
15/11:20am 15.5 12.3 -0.5 33 7.1 N 6 9 3 5 1024.0 - 0.0
15/11:10am 15.5 12.5 0.5 36 6.8 N 6 9 3 5 1024.2 - 0.0
15/11:00am 15.7 12.8 -1.0 32 7.3 NNE 4 7 2 4 1024.4 - 0.0
15/10:50am 14.1 12.0 1.5 42 5.7 NW 2 6 1 3 1024.5 - 0.0
15/10:40am 13.6 11.5 2.0 45 5.3 SSW 2 4 1 2 1024.5 - 0.0
15/10:30am 13.9 11.1 2.2 45 5.4 NNW 6 7 3 4 1024.6 - 0.0
15/10:20am 14.2 11.0 -0.3 37 6.3 N 6 9 3 5 1024.5 - 0.0
15/10:10am 14.4 11.3 0.0 37 6.4 N 6 9 3 5 1024.5 - 0.0
15/10:00am 14.3 11.3 2.0 43 5.7 NNE 7 7 4 4 1024.6 - 0.0
15/09:50am 14.7 12.5 3.1 45 5.5 N 4 9 2 5 1024.7 - 0.0
15/09:40am 14.6 12.3 2.7 44 5.6 N 4 6 2 3 1024.8 - 0.0
15/09:30am 13.4 11.3 1.6 44 5.3 N 2 7 1 4 1024.9 - 0.0
15/09:20am 11.7 9.8 3.1 55 4.0 NW 2 4 1 2 1024.9 - 0.0
15/09:10am 10.8 8.8 2.5 56 3.7 W 2 4 1 2 1025.0 - 0.0
15/09:00am 10.7 8.7 2.3 56 3.8 NNE 2 4 1 2 1025.1 - 0.0
15/08:50am 9.9 7.8 2.0 58 3.5 NW 2 4 1 2 1025.0 - 0.0
15/08:40am 9.9 7.9 2.4 59 3.4 ENE 2 4 1 2 1025.0 - 0.0
15/08:30am 10.4 8.0 2.0 56 3.7 SW 4 7 2 4 1025.1 - 0.0
15/08:20am 11.0 9.3 2.1 54 4.0 CALM 0 4 0 2 1024.9 - 0.0
15/08:10am 10.5 8.4 1.7 54 3.9 N 2 4 1 2 1025.0 - 0.0
15/08:00am 10.3 8.2 1.6 55 3.8 NNW 2 4 1 2 1024.9 - 0.0
15/07:50am 9.4 6.3 0.4 53 3.8 NNE 6 7 3 4 1024.8 - 0.0
15/07:40am 8.3 5.3 0.8 59 3.2 NE 6 9 3 5 1024.8 - 0.0
15/07:30am 7.8 5.1 0.2 58 3.2 SSW 4 7 2 4 1024.7 - 0.0
15/07:20am 7.3 4.6 0.4 61 2.9 SSW 4 7 2 4 1024.6 - 0.0
15/07:10am 7.2 4.9 0.5 62 2.8 N 2 4 1 2 1024.4 - 0.0
15/07:00am 6.7 4.3 -0.4 60 2.9 WSW 2 4 1 2 1024.3 - 0.0
15/06:50am 6.4 4.0 -0.6 61 2.8 NNW 2 4 1 2 1024.4 - 0.0
15/06:40am 6.5 3.2 -1.6 56 3.2 N 6 9 3 5 1024.3 - 0.0
15/06:30am 6.3 3.6 -2.7 52 3.4 E 2 6 1 3 1024.2 - 0.0
15/06:20am 5.6 2.6 -1.8 59 2.9 S 4 6 2 3 1024.0 - 0.0
15/06:10am 5.5 2.5 -1.7 60 2.8 S 4 6 2 3 1024.0 - 0.0
15/06:00am 5.4 2.8 -2.0 59 2.8 SE 2 6 1 3 1024.1 - 0.0
15/05:50am 5.4 2.8 -1.5 61 2.7 SSW 2 6 1 3 1024.0 - 0.0
15/05:40am 5.4 2.8 -1.7 60 2.8 E 2 6 1 3 1024.0 - 0.0
15/05:30am 5.5 2.9 -1.5 60 2.7 SSW 2 6 1 3 1024.0 - 0.0
15/05:20am 6.2 3.3 -1.4 58 3.0 NNW 4 7 2 4 1023.9 - 0.0
15/05:10am 6.3 3.5 -3.7 49 3.7 N 2 6 1 3 1023.7 - 0.0
15/05:00am 5.9 3.1 -3.7 50 3.6 SE 2 4 1 2 1023.7 - 0.0
15/04:50am 5.9 3.2 -2.3 55 3.1 SSW 2 4 1 2 1023.6 - 0.0
15/04:40am 5.9 3.2 -2.5 55 3.2 S 2 4 1 2 1023.6 - 0.0
15/04:30am 5.9 2.8 -2.3 55 3.1 SW 4 7 2 4 1023.5 - 0.0
15/04:20am 6.0 2.9 -2.9 53 3.4 E 4 6 2 3 1023.3 - 0.0
15/04:10am 6.3 3.2 -2.9 52 3.5 S 4 7 2 4 1023.6 - 0.0
15/04:00am 7.2 4.1 -2.8 49 3.8 NW 4 6 2 3 1023.3 - 0.0
15/03:50am 7.8 4.5 -4.5 41 4.6 S 4 6 2 3 1023.2 - 0.0
15/03:40am 7.9 4.7 -3.8 43 4.4 ENE 4 9 2 5 1023.3 - 0.0
15/03:30am 7.9 4.3 -3.5 44 4.3 SSE 6 9 3 5 1023.4 - 0.0
15/03:20am 9.8 6.6 -3.1 40 5.1 SSW 4 7 2 4 1023.4 - 0.0
15/03:10am 10.5 7.0 -6.0 31 6.1 S 4 7 2 4 1023.3 - 0.0
15/03:00am 10.3 6.8 -6.4 30 6.1 WSW 4 4 2 2 1023.4 - 0.0
15/02:50am 10.4 6.8 -7.2 28 6.3 S 4 7 2 4 1023.6 - 0.0
15/02:40am 9.1 6.1 -5.6 35 5.4 N 2 4 1 2 1023.6 - 0.0
15/02:30am 8.5 5.6 -4.2 40 4.8 NE 2 4 1 2 1023.6 - 0.0
15/02:20am 8.6 5.8 -3.3 43 4.6 SW 2 4 1 2 1023.6 - 0.0
15/02:10am 8.6 5.3 -4.1 40 4.8 S 4 6 2 3 1023.6 - 0.0
15/02:00am 8.7 5.9 -3.6 41 4.7 NNW 2 6 1 3 1023.7 - 0.0
15/01:50am 9.5 6.7 -3.0 41 4.9 NNW 2 4 1 2 1023.9 - 0.0
15/01:40am 10.3 7.0 -4.0 36 5.5 N 4 6 2 3 1023.9 - 0.0
15/01:30am 10.0 7.1 -3.9 37 5.4 NNW 2 6 1 3 1024.1 - 0.0
15/01:20am 10.0 7.1 -4.2 36 5.5 S 2 4 1 2 1024.3 - 0.0
15/01:10am 9.8 6.5 -4.0 37 5.3 SSE 4 6 2 3 1024.4 - 0.0
15/01:00am 9.7 6.5 -3.6 39 5.2 S 4 7 2 4 1024.5 - 0.0
15/12:50am 10.1 6.9 -3.7 37 5.4 SSE 4 7 2 4 1024.4 - 0.0
15/12:40am 10.7 7.4 -4.3 34 5.8 SSE 4 6 2 3 1024.5 - 0.0
15/12:30am 10.6 6.3 -4.5 34 5.8 ENE 9 11 5 6 1024.4 - 0.0
15/12:20am 10.3 6.7 -3.4 38 5.4 N 6 11 3 6 1024.6 - 0.0
15/12:10am 11.0 7.0 -5.2 31 6.1 ENE 7 11 4 6 1024.5 - 0.0
15/12:00am 10.5 7.0 -3.2 38 5.4 N 6 7 3 4 1024.7 - 0.0
 
Date/Time
EST
Temp
°C
App
Temp
°C
Dew
Point
°C
Rel
Hum
%
Delta-T
°C
Wind Press
QNH
hPa
Press
MSL
hPa
Rain since
9am
mm
Dir  Spd
km/h
Gust
km/h
Spd
kts
Gust
kts
14/11:50pm 11.2 7.7 -3.0 37 5.7 ENE 6 7 3 4 1024.6 - 0.0
14/11:40pm 12.2 8.4 -4.1 32 6.4 SSE 7 7 4 4 1024.6 - 0.0
14/11:30pm 12.2 8.0 -3.9 32 6.4 S 9 9 5 5 1024.6 - 0.0
14/11:20pm 12.1 7.9 -3.8 32 6.3 S 9 11 5 6 1024.7 - 0.0
14/11:10pm 11.9 7.3 -3.7 33 6.2 S 11 13 6 7 1024.7 - 0.0
14/11:00pm 11.8 7.3 -3.6 34 6.1 S 11 13 6 7 1024.7 - 0.0
14/10:50pm 11.5 6.2 -3.4 35 5.9 S 15 15 8 8 1024.9 - 0.0
14/10:40pm 11.6 6.3 -3.3 35 5.9 S 15 17 8 9 1025.0 - 0.0
14/10:30pm 11.8 6.9 -3.3 34 6.0 S 13 15 7 8 1025.1 - 0.0
14/10:20pm 12.0 6.3 -3.5 33 6.2 S 17 19 9 10 1025.4 - 0.0
14/10:10pm 12.2 6.2 -3.4 33 6.3 S 19 22 10 12 1025.5 - 0.0
14/10:00pm 12.6 6.3 -4.0 31 6.6 S 20 24 11 13 1025.3 - 0.0
14/09:50pm 12.4 6.1 -4.4 30 6.6 S 20 26 11 14 1025.2 - 0.0
14/09:40pm 12.1 5.9 -4.4 31 6.5 S 19 22 10 12 1025.1 - 0.0
14/09:30pm 11.9 5.8 -3.5 34 6.1 S 19 22 10 12 1025.1 - 0.0
14/09:20pm 11.7 6.5 -3.1 35 5.9 S 15 19 8 10 1025.0 - 0.0
14/09:10pm 12.0 6.0 -3.0 35 6.1 SSW 19 24 10 13 1025.0 - 0.0
14/09:00pm 12.2 6.2 -3.3 34 6.2 S 19 22 10 12 1024.9 - 0.0
14/08:50pm 12.5 6.3 -3.4 33 6.4 S 20 22 11 12 1024.8 - 0.0
14/08:40pm 12.7 6.4 -3.6 32 6.5 S 20 24 11 13 1024.7 - 0.0
14/08:30pm 12.7 7.0 -3.7 31 6.6 S 17 20 9 11 1024.7 - 0.0
14/08:20pm 12.8 6.7 -3.9 31 6.7 S 19 22 10 12 1024.7 - 0.0
14/08:10pm 12.5 6.8 -3.9 31 6.5 S 17 20 9 11 1024.7 - 0.0
14/08:00pm 12.4 7.1 -3.6 32 6.4 SSW 15 17 8 9 1024.8 - 0.0
14/07:50pm 12.5 7.2 -3.9 31 6.5 SSW 15 17 8 9 1024.7 - 0.0
14/07:40pm 12.1 6.8 -3.6 33 6.3 SSW 15 19 8 10 1024.7 - 0.0
14/07:30pm 12.0 6.7 -3.3 34 6.1 SSW 15 17 8 9 1024.5 - 0.0
14/07:20pm 12.2 7.3 -3.1 34 6.2 SSW 13 17 7 9 1024.4 - 0.0
14/07:10pm 12.8 7.9 -3.1 33 6.5 SSW 13 15 7 8 1024.3 - 0.0
14/07:00pm 13.0 7.7 -3.3 32 6.6 SSW 15 17 8 9 1024.1 - 0.0
14/06:50pm 13.3 8.0 -3.2 31 6.7 SSW 15 15 8 8 1024.0 - 0.0
14/06:40pm 13.3 8.9 -2.3 34 6.5 SSW 11 15 6 8 1024.0 - 0.0
14/06:30pm 13.7 9.1 -0.8 37 6.2 SSW 13 15 7 8 1023.9 - 0.0
14/06:20pm 14.0 9.1 -0.8 36 6.4 SSW 15 19 8 10 1023.7 - 0.0
14/06:10pm 13.8 9.4 0.5 40 5.9 SSW 13 17 7 9 1023.6 - 0.0
14/06:00pm 13.9 11.0 2.4 45 5.3 SSW 7 9 4 5 1023.4 - 0.0
14/05:50pm 14.9 12.0 2.5 43 5.8 S 7 7 4 4 1023.4 - 0.0
14/05:40pm 15.5 12.5 2.2 40 6.2 SSW 7 9 4 5 1023.2 - 0.0
14/05:30pm 16.5 14.1 2.1 38 6.8 NNE 4 11 2 6 1023.1 - 0.0
14/05:20pm 17.1 14.0 1.2 34 7.4 NNE 7 11 4 6 1022.9 - 0.0
14/05:10pm 17.5 14.1 1.9 35 7.3 N 9 13 5 7 1022.9 - 0.0
14/05:00pm 17.8 14.5 2.7 36 7.2 N 9 15 5 8 1022.9 - 0.0
14/04:50pm 17.7 13.6 2.2 35 7.4 N 13 17 7 9 1022.8 - 0.0
14/04:40pm 17.7 13.2 2.1 35 7.4 NNE 15 17 8 9 1022.7 - 0.0
14/04:30pm 17.8 12.9 2.0 34 7.5 N 17 20 9 11 1022.7 - 0.0
14/04:20pm 18.1 14.0 2.0 34 7.6 NNE 13 17 7 9 1022.6 - 0.0
14/04:10pm 18.3 14.6 2.5 35 7.6 NNE 11 17 6 9 1022.6 - 0.0
14/04:00pm 18.4 14.7 2.1 33 7.8 N 11 17 6 9 1022.5 - 0.0
14/03:50pm 18.6 14.4 1.8 32 8.0 N 13 17 7 9 1022.5 - 0.0
14/03:40pm 18.3 13.8 1.9 33 7.8 N 15 19 8 10 1022.6 - 0.0
14/03:30pm 18.5 14.4 2.1 33 7.8 N 13 17 7 9 1022.5 - 0.0
14/03:20pm 18.6 14.5 2.2 33 7.8 N 13 19 7 10 1022.6 - 0.0
14/03:10pm 18.2 13.7 2.2 34 7.6 N 15 19 8 10 1022.5 - 0.0
14/03:00pm 18.2 14.1 2.3 34 7.6 NNE 13 17 7 9 1022.6 - 0.0
14/02:50pm 18.4 14.4 2.7 35 7.6 NNE 13 20 7 11 1022.6 - 0.0
14/02:40pm 18.8 15.3 3.6 36 7.5 NNE 11 15 6 8 1022.7 - 0.0
14/02:30pm 19.2 15.1 2.4 32 8.1 N 13 19 7 10 1022.8 - 0.0
14/02:20pm 18.6 14.7 3.2 36 7.5 N 13 19 7 10 1022.8 - 0.0
14/02:00pm 19.0 15.4 3.1 34 7.8 NNE 11 15 6 8 1023.0 - 0.0
14/01:50pm 18.6 14.0 1.6 32 8.0 N 15 22 8 12 1023.1 - 0.0
14/01:40pm 18.2 13.0 2.5 35 7.5 N 19 24 10 13 1023.2 - 0.0
14/01:30pm 18.3 14.2 2.4 34 7.6 N 13 19 7 10 1023.2 - 0.0
14/01:20pm 17.6 13.0 1.7 34 7.5 NNE 15 22 8 12 1023.3 - 0.0
14/01:10pm 17.4 13.1 0.8 32 7.6 N 13 19 7 10 1023.4 - 0.0
14/01:00pm 17.3 12.5 0.4 32 7.7 N 15 19 8 10 1023.5 - 0.0
14/12:50pm 17.5 12.8 0.9 32 7.7 N 15 22 8 12 1023.7 - 0.0
14/12:40pm 18.0 13.3 1.0 32 7.9 N 15 17 8 9 1023.8 - 0.0
14/12:30pm 17.6 13.0 1.4 33 7.6 N 15 19 8 10 1023.8 - 0.0
14/12:20pm 17.6 13.5 2.4 36 7.2 N 13 22 7 12 1023.8 - 0.0
14/12:10pm 16.9 12.0 -0.3 31 7.7 N 15 20 8 11 1024.0 - 0.0
14/12:00pm 16.6 12.1 -0.5 31 7.6 N 13 17 7 9 1024.1 - 0.0
14/11:50am 16.6 12.5 -0.4 31 7.6 N 11 15 6 8 1024.3 - 0.0
14/11:40am 15.9 12.0 1.2 37 6.7 NNE 11 13 6 7 1024.3 - 0.0
14/11:30am 15.8 11.8 0.7 36 6.8 N 11 17 6 9 1024.4 - 0.0
14/11:20am 15.3 11.5 -0.9 33 7.1 N 9 15 5 8 1024.6 - 0.0
14/11:10am 14.6 10.4 -0.8 34 6.7 NNE 11 17 6 9 1024.7 - 0.0
14/11:00am 14.6 10.5 -0.3 36 6.5 NNE 11 13 6 7 1024.8 - 0.0
14/10:50am 14.4 9.8 -0.9 35 6.6 N 13 17 7 9 1024.8 - 0.0
14/10:40am 15.1 11.1 0.4 36 6.6 N 11 13 6 7 1024.9 - 0.0
14/10:30am 15.0 10.9 -0.5 34 6.8 N 11 15 6 8 1024.8 - 0.0
14/10:20am 14.7 10.4 -1.3 33 6.9 N 11 13 6 7 1024.9 - 0.0
14/10:00am 14.3 10.1 -0.6 36 6.5 N 11 13 6 7 1025.0 - 0.0
14/09:50am 13.9 10.7 0.8 41 5.9 N 7 11 4 6 1025.0 - 0.0
14/09:40am 12.8 8.9 -1.2 38 5.9 NNE 9 13 5 7 1025.1 - 0.0
14/09:30am 12.3 8.4 -1.7 38 5.8 NNE 9 13 5 7 1025.1 - 0.0
14/09:20am 11.9 8.0 -1.5 39 5.6 NNE 9 13 5 7 1025.2 - 0.0
14/09:10am 12.0 7.5 -0.3 42 5.3 NNE 13 13 7 7 1025.2 - 0.0
14/09:00am 12.9 9.7 -0.6 39 5.8 N 6 11 3 6 1025.1 - 0.0
14/08:50am 12.5 10.1 -0.5 40 5.6 NNW 2 4 1 2 1025.1 - 0.0
14/08:40am 11.9 9.5 -0.1 43 5.2 NW 2 6 1 3 1025.1 - 0.0
14/08:30am 11.2 9.0 -1.2 42 5.2 CALM 0 2 0 1 1025.0 - 0.0
14/08:20am 10.6 8.1 -0.7 45 4.7 SSW 2 4 1 2 1024.9 - 0.0
14/08:10am 9.9 7.8 -0.8 47 4.4 CALM 0 2 0 1 1024.8 - 0.0
14/08:00am 9.3 6.8 -1.1 48 4.3 S 2 6 1 3 1024.8 - 0.0
14/07:50am 8.9 6.4 -1.3 49 4.1 SW 2 6 1 3 1024.6 - 0.0
14/07:40am 8.2 5.6 -2.0 48 4.0 SW 2 6 1 3 1024.6 - 0.0
14/07:30am 7.6 4.6 -1.9 51 3.8 S 4 7 2 4 1024.4 - 0.0
14/07:20am 7.7 4.7 -1.7 51 3.7 SW 4 6 2 3 1024.3 - 0.0
14/07:10am 7.8 5.1 -2.1 49 3.9 SSE 2 6 1 3 1024.1 - 0.0
14/07:00am 7.8 5.1 -2.5 48 4.0 WNW 2 6 1 3 1023.8 - 0.0
14/06:50am 8.3 5.4 -3.9 42 4.6 NNE 2 6 1 3 1023.7 - 0.0
14/06:40am 8.2 4.8 -5.6 37 5.0 NNE 4 6 2 3 1023.5 - 0.0
14/06:30am 8.8 5.8 -5.2 36 5.2 W 2 4 1 2 1023.4 - 0.0
14/06:20am 9.2 5.5 -2.6 43 4.7 S 7 11 4 6 1023.3 - 0.0
14/06:10am 9.6 4.7 -6.9 30 5.9 SSE 11 15 6 8 1023.1 - 0.0
14/06:00am 10.0 5.3 -5.5 33 5.8 S 11 15 6 8 1023.0 - 0.0
14/05:50am 9.7 4.4 -7.4 29 6.1 SSE 13 15 7 8 1023.0 - 0.0
14/05:40am 9.1 4.6 -6.8 32 5.7 SSE 9 11 5 6 1022.9 - 0.0
14/05:30am 8.8 5.5 -4.5 38 5.0 NE 4 7 2 4 1022.8 - 0.0
14/05:20am 8.8 5.9 -3.9 40 4.8 NNE 2 4 1 2 1022.7 - 0.0
14/05:10am 8.6 5.7 -4.4 39 4.9 SSW 2 6 1 3 1022.6 - 0.0
14/05:00am 8.1 4.5 -3.7 43 4.5 SSE 6 9 3 5 1022.5 - 0.0
14/04:50am 8.0 4.0 -2.6 47 4.1 SE 9 11 5 6 1022.4 - 0.0
14/04:40am 8.3 4.8 -2.5 46 4.2 SSE 6 7 3 4 1022.4 - 0.0
14/04:30am 8.6 5.0 -2.3 46 4.3 SSW 7 11 4 6 1022.2 - 0.0
14/04:20am 8.8 5.2 -2.1 46 4.3 SSW 7 11 4 6 1022.1 - 0.0
14/04:10am 9.1 4.4 -2.1 45 4.5 SSW 13 17 7 9 1022.0 - 0.0
14/04:00am 9.0 4.2 -2.6 44 4.6 SSW 13 19 7 10 1021.9 - 0.0
14/03:50am 8.7 4.7 -2.6 45 4.4 S 9 13 5 7 1021.9 - 0.0
14/03:40am 8.5 5.1 -1.8 48 4.1 SSE 6 7 3 4 1021.9 - 0.0
14/03:30am 8.6 5.3 -1.4 49 4.0 SSE 6 7 3 4 1021.8 - 0.0
14/03:20am 8.6 5.3 -1.2 50 4.0 S 6 7 3 4 1021.9 - 0.0
14/03:10am 8.8 6.4 -0.6 51 3.9 SSE 2 6 1 3 1021.9 - 0.0
14/03:00am 9.2 5.4 -0.4 51 4.0 SW 9 15 5 8 1021.9 - 0.0
14/02:50am 9.5 3.6 -0.5 49 4.2 SW 20 26 11 14 1021.8 - 0.0
14/02:40am 9.4 4.5 -0.4 50 4.1 SW 15 20 8 11 1021.9 - 0.0
14/02:30am 9.7 4.8 -0.2 50 4.2 SSW 15 17 8 9 1022.0 - 0.0
14/02:20am 10.1 4.9 0.0 49 4.3 SSW 17 20 9 11 1022.1 - 0.0
14/02:10am 10.5 4.3 -0.2 47 4.5 SSW 22 26 12 14 1022.1 - 0.0
14/02:00am 10.6 4.8 -0.4 46 4.6 SSW 20 26 11 14 1022.1 - 0.0
14/01:50am 10.6 5.0 0.2 48 4.4 S 19 24 10 13 1022.1 - 0.0
14/01:40am 11.0 4.1 0.0 46 4.7 SSW 26 30 14 16 1021.9 - 0.0
14/01:30am 11.2 3.5 0.0 46 4.8 SSW 30 33 16 18 1021.9 - 0.0
14/01:20am 11.1 3.3 -1.0 43 5.1 SSW 30 35 16 19 1021.8 - 0.0
14/01:10am 11.2 2.9 -1.5 41 5.3 SSW 32 37 17 20 1022.0 - 0.0
14/01:00am 10.9 2.9 -2.1 40 5.3 SSW 30 32 16 17 1022.0 - 0.0
14/12:50am 10.4 2.3 -3.1 38 5.3 SW 30 35 16 19 1021.8 - 0.0
14/12:40am 9.8 2.3 -4.6 36 5.5 SW 26 33 14 18 1022.0 - 0.0
14/12:30am 9.6 2.4 -5.0 35 5.5 SW 24 26 13 14 1022.2 - 0.0
14/12:20am 9.7 2.9 -5.1 35 5.5 SW 22 24 12 13 1022.3 - 0.0
14/12:10am 9.8 2.3 -5.0 35 5.6 SW 26 30 14 16 1022.2 - 0.0
14/12:00am 10.0 3.2 -4.7 35 5.6 SW 22 24 12 13 1022.5 - 0.0
 
Date/Time
EST
Temp
°C
App
Temp
°C
Dew
Point
°C
Rel
Hum
%
Delta-T
°C
Wind Press
QNH
hPa
Press
MSL
hPa
Rain since
9am
mm
Dir  Spd
km/h
Gust
km/h
Spd
kts
Gust
kts
13/11:50pm 9.8 3.5 -5.4 34 5.7 SSW 19 22 10 12 1022.8 - 0.0
13/11:40pm 10.0 4.9 -5.5 33 5.8 SSW 13 17 7 9 1023.0 - 0.0
13/11:30pm 10.6 6.7 -6.9 28 6.4 SW 6 15 3 8 1022.9 - 0.0
13/11:20pm 10.8 6.6 -8.3 25 6.7 NE 7 11 4 6 1023.0 - 0.0
13/11:10pm 10.7 6.6 -8.5 25 6.7 NE 6 9 3 5 1022.9 - 0.0
13/11:00pm 10.8 6.5 -8.8 24 6.8 NE 7 13 4 7 1023.0 - 0.0
13/10:50pm 11.1 7.3 -9.2 23 7.0 WSW 4 9 2 5 1023.0 - 0.0
13/10:40pm 11.2 7.1 -8.7 24 7.0 SE 6 7 3 4 1023.2 - 0.0
13/10:30pm 11.1 7.3 -9.4 23 7.1 ENE 4 6 2 3 1023.3 - 0.0
13/10:20pm 11.0 6.9 -8.5 24 6.9 ESE 6 9 3 5 1023.2 - 0.0
13/10:10pm 10.9 6.3 -8.4 25 6.8 SSE 9 11 5 6 1023.4 - 0.0
13/10:00pm 10.9 6.2 -8.7 24 6.9 SE 9 9 5 5 1023.5 - 0.0
13/09:50pm 11.4 7.3 -9.4 22 7.2 ESE 6 7 3 4 1023.5 - 0.0
13/09:40pm 11.7 8.0 -8.4 23 7.1 ENE 4 6 2 3 1023.5 - 0.0
13/09:30pm 11.9 8.5 -9.1 22 7.4 N 2 6 1 3 1023.3 - 0.0
13/09:20pm 11.9 8.1 -9.4 21 7.4 SW 4 9 2 5 1023.3 - 0.0
13/09:10pm 11.9 7.8 -9.2 22 7.4 S 6 9 3 5 1023.6 - 0.0
13/09:00pm 12.0 7.3 -9.4 21 7.5 SSE 9 13 5 7 1023.5 - 0.0
13/08:50pm 12.3 8.1 -7.6 24 7.3 S 7 13 4 7 1023.6 - 0.0
13/08:40pm 12.3 8.7 -7.9 23 7.3 SW 4 7 2 4 1023.5 - 0.0
13/08:30pm 12.4 8.4 -6.1 27 7.0 WSW 7 13 4 7 1023.4 - 0.0
13/08:20pm 12.5 8.7 -5.3 28 6.9 W 6 11 3 6 1023.4 - 0.0
13/08:10pm 12.7 8.8 -5.0 29 6.9 WSW 7 13 4 7 1023.2 - 0.0
13/08:00pm 12.9 8.5 -5.6 27 7.1 WSW 9 13 5 7 1023.2 - 0.0
13/07:50pm 13.1 8.9 -7.6 23 7.6 WSW 7 11 4 6 1023.5 - 0.0
13/07:40pm 13.4 9.2 -8.3 21 7.9 SW 7 15 4 8 1023.3 - 0.0
13/07:30pm 13.4 9.5 -7.0 23 7.6 SW 6 7 3 4 1023.2 - 0.0
13/07:20pm 13.8 9.9 -6.4 24 7.7 SSW 6 7 3 4 1023.3 - 0.0
13/07:10pm 14.0 10.4 -7.3 22 8.0 SSE 4 7 2 4 1022.9 - 0.0
13/07:00pm 13.8 9.8 -7.1 23 7.8 SE 6 7 3 4 1023.0 - 0.0
13/06:50pm 13.9 10.0 -4.9 27 7.4 NE 7 9 4 5 1022.6 - 0.0
13/06:40pm 14.1 10.7 -4.9 26 7.5 NE 4 7 2 4 1022.5 - 0.0
13/06:30pm 14.3 11.0 -4.3 27 7.5 W 4 7 2 4 1022.7 - 0.0
13/06:20pm 14.6 9.9 -5.5 24 7.9 WSW 11 19 6 10 1022.9 - 0.0
13/06:10pm 14.7 9.4 -7.4 21 8.3 SSW 13 19 7 10 1023.0 - 0.0
13/06:00pm 15.0 8.7 -6.3 22 8.2 SW 19 22 10 12 1022.9 - 0.0
13/05:50pm 15.2 8.2 -7.4 20 8.6 SSW 22 30 12 16 1022.8 - 0.0
13/05:40pm 15.4 10.0 -4.1 26 8.0 SSW 15 22 8 12 1022.7 - 0.0
13/05:30pm 15.8 12.0 -0.6 32 7.2 WSW 9 17 5 9 1022.7 - 0.0
13/05:20pm 16.6 11.8 -0.1 32 7.5 WSW 15 20 8 11 1022.6 - 0.0
13/05:10pm 17.0 12.9 0.0 31 7.7 WSW 11 17 6 9 1022.5 - 0.0
13/05:00pm 17.1 12.6 -0.3 30 7.8 SW 13 20 7 11 1022.5 - 0.0
13/04:50pm 16.6 13.2 -0.4 31 7.6 W 7 11 4 6 1022.2 - 0.0
13/04:40pm 17.1 13.6 -1.0 29 8.0 W 7 13 4 7 1022.3 - 0.0
13/04:30pm 16.7 12.6 -0.5 31 7.7 W 11 15 6 8 1022.4 - 0.0
13/04:20pm 17.2 12.7 -0.6 30 7.9 WSW 13 15 7 8 1022.3 - 0.0
13/04:10pm 17.6 11.8 -1.6 27 8.4 WSW 19 26 10 14 1022.1 - 0.0
13/04:00pm 17.5 11.2 -1.0 28 8.2 WSW 22 28 12 15 1022.1 - 0.0
13/03:50pm 17.9 10.7 -2.1 25 8.7 WSW 26 32 14 17 1021.9 - 0.0
13/03:40pm 17.9 11.0 -2.3 25 8.8 WSW 24 32 13 17 1021.8 - 0.0
13/03:30pm 18.0 10.8 -1.7 26 8.7 WSW 26 30 14 16 1021.7 - 0.0
13/03:20pm 19.5 13.0 -2.1 23 9.5 SW 22 32 12 17 1021.6 - 0.0
13/03:10pm 19.5 13.5 -2.8 22 9.7 WSW 19 28 10 15 1021.5 - 0.0
13/03:00pm 19.6 13.0 -3.6 20 10.0 SW 22 30 12 16 1021.3 - 0.0
13/02:50pm 20.0 13.2 -5.0 18 10.5 WSW 22 26 12 14 1021.4 - 0.0
13/02:40pm 20.3 14.4 -5.3 17 10.7 WSW 17 24 9 13 1021.2 - 0.0
13/02:30pm 20.3 13.8 -6.0 16 10.8 WSW 20 32 11 17 1021.3 - 0.0
13/02:20pm 20.7 15.1 -6.2 16 11.1 WSW 15 26 8 14 1021.4 - 0.0
13/02:10pm 20.5 15.3 -6.7 15 11.1 WSW 13 24 7 13 1021.7 - 0.0
13/02:00pm 19.9 13.5 -6.5 16 10.7 SW 19 32 10 17 1021.8 - 0.0
13/01:50pm 21.0 15.4 -6.7 15 11.3 WNW 15 22 8 12 1021.8 - 0.0
13/01:40pm 19.9 15.8 -2.8 21 9.9 NNW 9 17 5 9 1022.1 - 0.0
13/01:30pm 18.3 12.6 -1.1 27 8.7 NNE 19 22 10 12 1022.1 - 0.0
13/01:20pm 17.6 11.3 -1.3 27 8.3 NNE 22 30 12 16 1022.3 - 0.0
13/01:10pm 17.7 12.3 -1.3 27 8.4 NNE 17 24 9 13 1022.4 - 0.0
13/01:00pm 17.3 11.0 -1.1 28 8.1 N 22 24 12 13 1022.7 - 0.0
13/12:50pm 17.1 10.9 -0.6 30 7.9 NNE 22 26 12 14 1022.8 - 0.0
13/12:40pm 17.0 11.2 -0.4 30 7.8 NNE 20 26 11 14 1023.0 - 0.0
13/12:30pm 17.4 12.1 1.6 34 7.4 NNE 19 22 10 12 1023.2 - 0.0
13/12:20pm 16.7 11.2 0.4 33 7.4 NNE 19 24 10 13 1023.4 - 0.0
13/12:10pm 16.8 12.3 -0.2 31 7.6 N 13 20 7 11 1023.5 - 0.0
13/12:00pm 17.2 12.5 -1.6 27 8.2 N 13 19 7 10 1023.7 - 0.0
13/11:50am 16.5 11.8 -1.7 29 7.9 N 13 17 7 9 1024.0 - 0.0
13/11:40am 16.5 12.2 -1.5 29 7.8 N 11 15 6 8 1024.2 - 0.0
13/11:30am 16.4 11.9 -3.5 25 8.3 N 11 15 6 8 1024.3 - 0.0
13/11:20am 16.3 11.8 -3.5 25 8.3 N 11 15 6 8 1024.5 - 0.0
13/11:10am 16.5 12.2 -1.6 29 7.9 N 11 15 6 8 1024.6 - 0.0
13/11:00am 16.4 12.8 -1.8 28 7.9 NNW 7 11 4 6 1024.8 - 0.0
13/10:50am 15.5 12.1 -1.7 30 7.4 N 6 11 3 6 1024.9 - 0.0
13/10:40am 14.7 11.3 -1.8 32 7.0 NNE 6 7 3 4 1024.9 - 0.0
13/10:30am 15.1 11.3 -1.0 33 7.0 N 9 13 5 7 1025.0 - 0.0
13/10:20am 14.9 10.7 -0.6 34 6.8 N 11 13 6 7 1025.0 - 0.0

Other formats

Comma delimited format used in spreadsheet applications
http://www.bom.gov.au/fwo/IDN60801/IDN60801.99762.axf

JavaScript Object Notation format (JSON) in row-major order
http://www.bom.gov.au/fwo/IDN60801/IDN60801.99762.json

Data quality

Most of these data are generated automatically and are frequently updated. Quality checks on data are not normally performed. It is possible for incorrect values to appear. Refer to information at About Latest Weather Observations and please check the disclaimer before using these data.